createdAt,value
2022-12-19T00:00:33.921Z,100434.41
2022-12-19T00:03:21.473Z,100422.16
2022-12-19T00:05:49.589Z,100415.16
2022-12-19T00:08:17.946Z,100411.53
2022-12-19T00:10:55.527Z,100397.28
2022-12-19T00:13:23.719Z,100397.28
2022-12-19T00:15:51.437Z,100395.75
2022-12-19T00:18:19.023Z,100392.25
2022-12-19T00:20:58.195Z,100389.72
2022-12-19T00:23:27.246Z,100374.66
2022-12-19T00:25:54.937Z,100380.94
2022-12-19T00:28:23.296Z,100385.25
2022-12-19T00:30:51.745Z,100386.25
2022-12-19T00:33:21.781Z,100390.56
2022-12-19T00:35:49.563Z,100390.84
2022-12-19T00:38:16.829Z,100389.16
2022-12-19T00:40:44.598Z,100390.97
2022-12-19T00:43:11.876Z,100380.47
2022-12-19T00:45:39.494Z,100375.88
2022-12-19T00:48:07.493Z,100381.34
2022-12-19T00:50:36.908Z,100379.38
2022-12-19T00:53:04.188Z,100371.56
2022-12-19T00:55:31.783Z,100375.88
2022-12-19T00:58:00.628Z,100382.19
2022-12-19T01:00:28.594Z,100377.81
2022-12-19T01:02:56.769Z,100385.78
2022-12-19T01:05:24.423Z,100380.47
2022-12-19T01:07:52.342Z,100378.81
2022-12-19T01:10:19.996Z,100379.75
2022-12-19T01:12:47.318Z,100370.16
2022-12-19T01:15:18.659Z,100378.81
2022-12-19T01:17:46.845Z,100369.88
2022-12-19T01:20:17.562Z,100365.69
2022-12-19T01:22:46.755Z,100363.16
2022-12-19T01:25:14.553Z,100356.88
2022-12-19T01:27:42.469Z,100349.88
2022-12-19T01:30:10.804Z,100353.53
2022-12-19T01:32:38.385Z,100349.19
2022-12-19T01:35:09.922Z,100336.78
2022-12-19T01:37:53.596Z,100327.97
2022-12-19T01:40:26.751Z,100324.47
2022-12-19T01:42:53.957Z,100316.69
2022-12-19T01:45:34.462Z,100303.41
2022-12-19T01:48:18.229Z,100298.13
2022-12-19T01:51:11.621Z,100291.13
2022-12-19T01:53:49.982Z,100289.47
2022-12-19T01:56:24.397Z,100295.59
2022-12-19T01:59:05.955Z,100298.38
2022-12-19T02:01:35.618Z,100290.41
2022-12-19T02:04:06.990Z,100292.22
2022-12-19T02:06:35.005Z,100281.63
2022-12-19T02:09:02.519Z,100284.16
2022-12-19T02:11:31.455Z,100283.28
2022-12-19T02:13:59.753Z,100279.06
2022-12-19T02:16:46.057Z,100280.78
2022-12-19T02:19:31.785Z,100270.19
2022-12-19T02:22:39.697Z,100263.16
2022-12-19T02:25:31.583Z,100271.25
2022-12-19T02:28:30.015Z,100266.81
2022-12-19T02:31:19.535Z,100275.72
2022-12-19T02:33:53.138Z,100267.06
2022-12-19T02:37:05.436Z,100269.69
2022-12-19T02:39:55.100Z,100265.38
2022-12-19T02:42:30.513Z,100269.69
2022-12-19T02:45:01.912Z,100272.34
2022-12-19T02:47:31.550Z,100276.00
2022-12-19T02:49:59.239Z,100276.13
2022-12-19T02:52:26.497Z,100273.34
2022-12-19T02:54:57.494Z,100276.00
2022-12-19T02:57:31.018Z,100276.25
2022-12-19T03:00:16.042Z,100280.59
2022-12-19T03:03:11.281Z,100275.41
2022-12-19T03:05:41.777Z,100283.34
2022-12-19T03:08:14.770Z,100270.94
2022-12-19T03:10:57.777Z,100269.28
2022-12-19T03:13:56.883Z,100243.72
2022-12-19T03:16:25.246Z,100243.72
2022-12-19T03:18:54.087Z,100244.59
2022-12-19T03:21:39.376Z,100241.34
2022-12-19T03:24:08.097Z,100246.38
2022-12-19T03:26:49.411Z,100251.00
2022-12-19T03:29:23.784Z,100250.00
2022-12-19T03:31:52.282Z,100246.66
2022-12-19T03:34:27.795Z,100250.13
2022-12-19T03:36:59.798Z,100251.94
2022-12-19T03:39:29.538Z,100252.94
2022-12-19T03:42:18.234Z,100257.25
2022-12-19T03:44:46.691Z,100260.19
2022-12-19T03:47:35.545Z,100254.72
2022-12-19T03:50:03.857Z,100264.50
2022-12-19T03:52:52.035Z,100245.22
2022-12-19T03:55:24.394Z,100234.75
2022-12-19T03:58:10.566Z,100237.28
2022-12-19T04:00:43.769Z,100238.00
2022-12-19T04:03:11.986Z,100238.28
2022-12-19T04:05:41.843Z,100233.09
2022-12-19T04:08:11.591Z,100232.97
2022-12-19T04:11:03.962Z,100241.88
2022-12-19T04:13:42.095Z,100230.56
2022-12-19T04:16:23.665Z,100237.56
2022-12-19T04:19:03.198Z,100234.22
2022-12-19T04:21:35.023Z,100218.31
2022-12-19T04:24:15.773Z,100205.06
2022-12-19T04:26:47.571Z,100209.66
2022-12-19T04:29:15.886Z,100207.00
2022-12-19T04:31:44.335Z,100200.00
2022-12-19T04:34:11.891Z,100201.69
2022-12-19T04:36:39.214Z,100200.88
2022-12-19T04:39:07.231Z,100198.34
2022-12-19T04:41:34.529Z,100195.56
2022-12-19T04:44:02.077Z,100203.50
2022-12-19T04:46:29.361Z,100202.81
2022-12-19T04:48:56.974Z,100201.00
2022-12-19T04:51:24.311Z,100213.53
2022-12-19T04:53:51.834Z,100205.59
2022-12-19T04:56:19.149Z,100200.28
2022-12-19T04:58:46.682Z,100200.28
2022-12-19T05:01:14.349Z,100198.63
2022-12-19T05:03:42.125Z,100193.16
2022-12-19T05:06:12.809Z,100190.66
2022-12-19T05:08:42.955Z,100184.50
2022-12-19T05:11:17.528Z,100175.72
2022-12-19T05:13:47.606Z,100170.44
2022-12-19T05:16:15.918Z,100170.56
2022-12-19T05:18:44.219Z,100168.75
2022-12-19T05:21:12.106Z,100170.72
2022-12-19T05:23:39.813Z,100176.72
2022-12-19T05:26:07.733Z,100185.63
2022-12-19T05:28:35.519Z,100188.28
2022-12-19T05:31:11.192Z,100180.31
2022-12-19T05:33:40.959Z,100179.63
2022-12-19T05:36:08.922Z,100176.97
2022-12-19T05:38:37.008Z,100186.59
2022-12-19T05:41:12.667Z,100184.09
2022-12-19T05:43:40.405Z,100178.91
2022-12-19T05:46:08.226Z,100175.31
2022-12-19T05:48:35.803Z,100164.00
2022-12-19T05:51:03.871Z,100181.84
2022-12-19T05:53:31.497Z,100172.34
2022-12-19T05:56:10.824Z,100176.78
2022-12-19T05:58:40.247Z,100177.78
2022-12-19T06:01:27.937Z,100183.91
2022-12-19T06:03:55.868Z,100175.25
2022-12-19T06:06:26.070Z,100164.81
2022-12-19T06:08:55.422Z,100164.53
2022-12-19T06:11:23.476Z,100165.47
2022-12-19T06:13:51.353Z,100162.16
2022-12-19T06:16:20.951Z,100168.41
2022-12-19T06:18:48.898Z,100168.69
2022-12-19T06:21:18.799Z,100170.63
2022-12-19T06:23:47.210Z,100168.09
2022-12-19T06:26:19.478Z,100169.22
2022-12-19T06:28:49.255Z,100170.16
2022-12-19T06:31:17.724Z,100170.03
2022-12-19T06:33:45.619Z,100171.03
2022-12-19T06:36:18.567Z,100158.88
2022-12-19T06:38:46.605Z,100169.75
2022-12-19T06:41:33.546Z,100178.66
2022-12-19T06:44:02.270Z,100176.69
2022-12-19T06:46:30.365Z,100176.16
2022-12-19T06:48:58.001Z,100170.72
2022-12-19T06:51:25.277Z,100170.56
2022-12-19T06:53:52.895Z,100174.50
2022-12-19T06:56:20.323Z,100168.94
2022-12-19T06:58:48.975Z,100168.53
2022-12-19T07:01:22.107Z,100168.84
2022-12-19T07:03:50.082Z,100160.75
2022-12-19T07:06:17.383Z,100164.94
2022-12-19T07:08:45.009Z,100161.91
2022-12-19T07:11:12.269Z,100162.47
2022-12-19T07:13:39.787Z,100159.53
2022-12-19T07:16:08.158Z,100154.25
2022-12-19T07:18:39.738Z,100167.25
2022-12-19T07:21:11.203Z,100162.38
2022-12-19T07:23:39.710Z,100165.47
2022-12-19T07:26:07.144Z,100162.22
2022-12-19T07:28:35.847Z,100154.84
2022-12-19T07:31:03.380Z,100154.44
2022-12-19T07:33:31.057Z,100166.00
2022-12-19T07:35:58.347Z,100168.25
2022-12-19T07:38:26.069Z,100153.22
2022-12-19T07:40:53.335Z,100153.63
2022-12-19T07:43:20.887Z,100155.44
2022-12-19T07:45:54.885Z,100152.63
2022-12-19T07:48:22.718Z,100145.44
2022-12-19T07:50:50.296Z,100147.69
2022-12-19T07:53:17.823Z,100149.91
2022-12-19T07:55:45.123Z,100142.38
2022-12-19T07:58:12.689Z,100136.50
2022-12-19T08:00:39.967Z,100130.94
2022-12-19T08:03:08.043Z,100133.28
2022-12-19T08:05:35.424Z,100123.69
2022-12-19T08:08:03.230Z,100122.00
2022-12-19T08:10:31.191Z,100125.34
2022-12-19T08:12:59.066Z,100129.53
2022-12-19T08:15:27.318Z,100131.47
2022-12-19T08:17:55.064Z,100135.66
2022-12-19T08:20:22.310Z,100133.28
2022-12-19T08:22:51.396Z,100127.03
2022-12-19T08:25:18.646Z,100118.91
2022-12-19T08:27:46.334Z,100118.66
2022-12-19T08:30:14.886Z,100120.59
2022-12-19T08:32:44.807Z,100126.03
2022-12-19T08:35:12.123Z,100137.34
2022-12-19T08:37:39.921Z,100141.66
2022-12-19T08:40:07.979Z,100135.66
2022-12-19T08:42:35.537Z,100137.22
2022-12-19T08:45:02.984Z,100126.59
2022-12-19T08:47:30.542Z,100127.44
2022-12-19T08:49:57.776Z,100129.25
2022-12-19T08:52:25.353Z,100122.00
2022-12-19T08:54:52.702Z,100111.38
2022-12-19T08:57:20.463Z,100117.78
2022-12-19T08:59:47.988Z,100117.53
2022-12-19T09:02:16.544Z,100119.47
2022-12-19T09:05:57.792Z,100118.34
2022-12-19T09:07:31.671Z,100116.69
2022-12-19T09:10:02.175Z,100114.16
2022-12-19T09:12:29.495Z,100105.22
2022-12-19T09:14:57.145Z,100095.47
2022-12-19T09:17:24.472Z,100088.59
2022-12-19T09:19:53.266Z,100085.69
2022-12-19T09:22:21.022Z,100094.59
2022-12-19T09:24:55.147Z,100081.34
2022-12-19T09:27:23.599Z,100083.16
2022-12-19T09:29:51.524Z,100091.94
2022-12-19T09:32:18.878Z,100085.94
2022-12-19T09:34:46.464Z,100092.94
2022-12-19T09:37:16.126Z,100085.69
2022-12-19T09:39:48.519Z,100082.34
2022-12-19T09:42:41.708Z,100088.47
2022-12-19T09:45:31.926Z,100087.50
2022-12-19T09:48:01.366Z,100068.50
2022-12-19T09:51:10.554Z,100073.66
2022-12-19T09:54:05.237Z,100063.91
2022-12-19T09:56:45.885Z,100059.41
2022-12-19T09:59:39.912Z,100057.47
2022-12-19T10:02:28.330Z,100049.63
2022-12-19T10:05:49.153Z,100041.25
2022-12-19T10:08:09.009Z,100040.72
2022-12-19T10:12:35.668Z,100035.41
2022-12-19T10:14:19.598Z,100035.41
2022-12-19T10:17:24.134Z,100038.75
2022-12-19T10:20:26.477Z,100026.44
2022-12-19T10:23:31.136Z,100024.50
2022-12-19T10:26:19.344Z,100025.19
2022-12-19T10:28:55.362Z,100023.66
2022-12-19T10:31:54.970Z,100025.31
2022-12-19T10:34:25.104Z,100011.91
2022-12-19T10:37:25.548Z,100013.03
2022-12-19T10:39:57.466Z,100011.91
2022-12-19T10:42:42.939Z,100006.59
2022-12-19T10:45:16.427Z,99987.34
2022-12-19T10:47:44.080Z,99992.63
2022-12-19T10:50:13.610Z,99990.97
2022-12-19T10:52:52.403Z,99984.97
2022-12-19T10:55:42.637Z,99979.69
2022-12-19T10:58:34.546Z,99980.63
2022-12-19T11:01:25.775Z,99983.16
2022-12-19T11:04:33.437Z,99986.63
2022-12-19T11:07:01.279Z,99970.84
2022-12-19T11:09:30.587Z,99977.16
2022-12-19T11:14:30.968Z,99973.66
2022-12-19T11:21:14.507Z,99959.28
2022-12-19T11:24:46.949Z,99965.72
2022-12-19T11:29:18.523Z,99956.75
2022-12-19T11:29:26.396Z,99959.28
2022-12-19T11:29:42.536Z,99949.63
2022-12-19T11:32:44.467Z,99949.63
2022-12-19T11:35:37.178Z,99942.94
2022-12-19T11:38:08.314Z,99947.13
2022-12-19T11:41:01.865Z,99938.03
2022-12-19T11:43:46.124Z,99939.31
2022-12-19T11:46:40.660Z,99933.00
2022-12-19T11:49:36.532Z,99918.66
2022-12-19T11:53:02.410Z,99913.34
2022-12-19T11:55:22.665Z,99914.31
2022-12-19T11:57:52.274Z,99903.81
2022-12-19T12:00:22.332Z,99913.34
2022-12-19T12:03:01.465Z,99911.38
2022-12-19T12:05:45.106Z,99906.34
2022-12-19T12:09:32.900Z,99893.06
2022-12-19T12:18:36.760Z,99889.84
2022-12-19T12:26:25.614Z,99893.19
2022-12-19T12:31:01.729Z,99888.81
2022-12-19T12:31:13.967Z,99894.56
2022-12-19T12:31:42.625Z,99877.06
2022-12-19T12:31:45.109Z,99868.13
2022-12-19T12:32:04.668Z,99872.13
2022-12-19T12:35:46.223Z,99872.13
2022-12-19T12:39:50.450Z,99864.25
2022-12-19T12:42:42.581Z,99861.16
2022-12-19T12:45:31.906Z,99867.31
2022-12-19T12:47:59.471Z,99870.94
2022-12-19T12:50:28.219Z,99862.00
2022-12-19T12:52:59.856Z,99860.69
2022-12-19T12:55:31.819Z,99848.78
2022-12-19T12:57:59.506Z,99854.97
2022-12-19T13:00:29.392Z,99858.13
2022-12-19T13:03:16.205Z,99853.50
2022-12-19T13:05:46.608Z,99849.88
2022-12-19T13:08:26.100Z,99864.13
2022-12-19T13:10:55.740Z,99850.47
2022-12-19T13:13:58.053Z,99849.47
2022-12-19T13:16:43.686Z,99848.50
2022-12-19T13:19:28.880Z,99845.16
2022-12-19T13:22:08.956Z,99841.97
2022-12-19T13:24:54.005Z,99834.53
2022-12-19T13:27:21.475Z,99841.50
2022-12-19T13:30:01.040Z,99837.34
2022-12-19T13:32:40.575Z,99829.50
2022-12-19T13:35:39.053Z,99835.81
2022-12-19T13:39:54.296Z,99836.66
2022-12-19T13:41:27.107Z,99829.81
2022-12-19T13:43:59.775Z,99821.72
2022-12-19T13:46:39.457Z,99815.56
2022-12-19T13:49:14.020Z,99813.06
2022-12-19T13:51:47.236Z,99819.22
2022-12-19T13:54:20.599Z,99816.56
2022-12-19T13:56:48.428Z,99806.47
2022-12-19T13:59:17.238Z,99817.25
2022-12-19T14:01:45.882Z,99799.47
2022-12-19T14:04:27.782Z,99797.66
2022-12-19T14:07:01.308Z,99798.94
2022-12-19T14:11:31.324Z,99796.00
2022-12-19T14:13:47.220Z,99799.94
2022-12-19T14:15:51.877Z,99791.16
2022-12-19T14:18:45.165Z,99788.50
2022-12-19T14:22:11.514Z,99782.34
2022-12-19T14:24:24.105Z,99781.94
2022-12-19T14:28:23.156Z,99785.28
2022-12-19T14:30:26.577Z,99774.00
2022-12-19T14:33:47.186Z,99775.00
2022-12-19T14:36:10.525Z,99774.31
2022-12-19T14:39:24.219Z,99774.59
2022-12-19T14:42:00.992Z,99765.13
2022-12-19T14:52:35.101Z,99770.44
2022-12-19T14:54:00.623Z,99767.91
2022-12-19T14:54:16.866Z,99770.75
2022-12-19T14:54:51.527Z,99775.38
2022-12-19T14:59:04.160Z,99756.25
2022-12-19T15:01:34.586Z,99741.16
2022-12-19T15:04:50.396Z,99743.78
2022-12-19T15:07:09.740Z,99748.41
2022-12-19T15:11:06.383Z,99747.09
2022-12-19T15:14:52.305Z,99739.25
2022-12-19T15:16:05.810Z,99733.13
2022-12-19T15:18:33.267Z,99746.53
2022-12-19T15:21:05.661Z,99738.56
2022-12-19T15:23:33.002Z,99734.41
2022-12-19T15:26:05.022Z,99734.56
2022-12-19T15:28:46.989Z,99720.31
2022-12-19T15:31:27.351Z,99715.97
2022-12-19T15:36:43.153Z,99718.09
2022-12-19T15:39:10.869Z,99723.94
2022-12-19T15:41:38.451Z,99721.97
2022-12-19T15:44:15.252Z,99732.28
2022-12-19T15:46:48.469Z,99720.69
2022-12-19T15:49:21.415Z,99717.34
2022-12-19T15:51:49.761Z,99722.50
2022-12-19T15:57:09.116Z,99721.97
2022-12-19T15:59:43.922Z,99715.00
2022-12-19T16:02:17.520Z,99704.09
2022-12-19T16:04:47.974Z,99700.75
2022-12-19T16:07:18.106Z,99696.13
2022-12-19T16:09:45.751Z,99693.78
2022-12-19T16:12:15.887Z,99698.09
2022-12-19T16:14:45.369Z,99700.75
2022-12-19T16:17:19.063Z,99699.09
2022-12-19T16:19:46.350Z,99692.09
2022-12-19T16:22:28.669Z,99697.25
2022-12-19T16:24:56.021Z,99691.13
2022-12-19T16:27:28.952Z,99687.09
2022-12-19T16:29:58.986Z,99681.47
2022-12-19T16:32:26.562Z,99678.16
2022-12-19T16:34:54.370Z,99666.72
2022-12-19T16:37:24.674Z,99669.50
2022-12-19T16:39:54.634Z,99671.19
2022-12-19T16:42:22.219Z,99667.53
2022-12-19T16:44:49.607Z,99673.53
2022-12-19T16:47:18.189Z,99676.19
2022-12-19T16:49:46.492Z,99668.59
2022-12-19T16:52:14.067Z,99665.63
2022-12-19T16:54:41.442Z,99660.00
2022-12-19T16:57:19.596Z,99659.88
2022-12-19T16:59:47.088Z,99658.72
2022-12-19T17:02:49.370Z,99656.44
2022-12-19T17:05:23.394Z,99648.19
2022-12-19T17:07:52.284Z,99649.16
2022-12-19T17:10:26.181Z,99653.84
2022-12-19T17:12:55.717Z,99649.22
2022-12-19T17:15:28.137Z,99651.88
2022-12-19T17:17:59.246Z,99647.25
2022-12-19T17:20:32.133Z,99645.59
2022-12-19T17:23:00.040Z,99641.41
2022-12-19T17:25:28.151Z,99639.06
2022-12-19T17:27:56.351Z,99631.25
2022-12-19T17:30:24.115Z,99642.88
2022-12-19T17:32:54.704Z,99639.22
2022-12-19T17:35:28.252Z,99638.25
2022-12-19T17:37:58.442Z,99634.59
2022-12-19T17:40:28.531Z,99634.59
2022-12-19T17:42:57.136Z,99632.09
2022-12-19T17:45:27.868Z,99637.91
2022-12-19T17:48:02.894Z,99629.13
2022-12-19T17:50:32.368Z,99626.78
2022-12-19T17:53:00.320Z,99636.28
2022-12-19T17:55:29.703Z,99629.44
2022-12-19T17:57:57.992Z,99632.94
2022-12-19T18:00:30.729Z,99623.97
2022-12-19T18:03:04.815Z,99619.66
2022-12-19T18:05:38.249Z,99623.13
2022-12-19T18:08:18.854Z,99618.66
2022-12-19T18:10:46.150Z,99620.34
2022-12-19T18:13:13.748Z,99622.00
2022-12-19T18:15:41.141Z,99626.63
2022-12-19T18:18:13.947Z,99623.97
2022-12-19T18:20:43.667Z,99624.81
2022-12-19T18:23:17.508Z,99624.28
2022-12-19T18:25:45.770Z,99623.47
2022-12-19T18:28:14.569Z,99620.97
2022-12-19T18:30:46.069Z,99610.34
2022-12-19T18:33:17.716Z,99602.53
2022-12-19T18:35:47.813Z,99603.53
2022-12-19T18:38:20.972Z,99608.00
2022-12-19T18:40:51.782Z,99601.69
2022-12-19T18:43:19.829Z,99591.41
2022-12-19T18:45:51.680Z,99586.09
2022-12-19T18:48:26.943Z,99599.50
2022-12-19T18:50:55.843Z,99587.91
2022-12-19T18:53:35.302Z,99580.25
2022-12-19T18:56:06.111Z,99581.41
2022-12-19T18:58:34.413Z,99568.13
2022-12-19T19:01:03.661Z,99567.13
2022-12-19T19:03:38.098Z,99570.78
2022-12-19T19:06:18.767Z,99572.75
2022-12-19T19:08:46.610Z,99559.34
2022-12-19T19:11:14.392Z,99564.66
2022-12-19T19:13:43.606Z,99567.44
2022-12-19T19:16:18.657Z,99565.47
2022-12-19T19:18:48.648Z,99572.44
2022-12-19T19:21:16.322Z,99557.53
2022-12-19T19:23:52.074Z,99558.03
2022-12-19T19:26:19.397Z,99552.56
2022-12-19T19:28:52.267Z,99562.34
2022-12-19T19:31:23.367Z,99555.38
2022-12-19T19:33:57.969Z,99556.22
2022-12-19T19:36:29.300Z,99559.56
2022-12-19T19:38:57.927Z,99552.28
2022-12-19T19:41:30.199Z,99557.94
2022-12-19T19:43:59.691Z,99557.78
2022-12-19T19:46:27.724Z,99547.66
2022-12-19T19:48:55.376Z,99545.19
2022-12-19T19:51:22.678Z,99537.03
2022-12-19T19:53:50.265Z,99542.34
2022-12-19T19:56:17.517Z,99544.72
2022-12-19T19:58:45.041Z,99538.41
2022-12-19T20:01:14.163Z,99531.44
2022-12-19T20:03:43.143Z,99537.44
2022-12-19T20:06:10.992Z,99538.41
2022-12-19T20:08:40.862Z,99540.06
2022-12-19T20:11:09.528Z,99534.78
2022-12-19T20:13:38.172Z,99534.44
2022-12-19T20:16:13.691Z,99534.44
2022-12-19T20:18:42.409Z,99522.47
2022-12-19T20:21:13.335Z,99517.50
2022-12-19T20:23:43.277Z,99520.81
2022-12-19T20:26:12.591Z,99515.66
2022-12-19T20:28:47.658Z,99519.47
2022-12-19T20:31:17.927Z,99512.47
2022-12-19T20:33:46.378Z,99521.44
2022-12-19T20:36:15.267Z,99517.78
2022-12-19T20:38:42.988Z,99529.25
2022-12-19T20:41:10.903Z,99522.28
2022-12-19T20:43:38.623Z,99526.75
2022-12-19T20:46:08.637Z,99521.44
2022-12-19T20:48:37.116Z,99525.06
2022-12-19T20:51:06.064Z,99516.44
2022-12-19T20:53:36.256Z,99520.09
2022-12-19T20:56:06.123Z,99499.69
2022-12-19T20:58:36.081Z,99496.34
2022-12-19T21:01:09.972Z,99496.88
2022-12-19T21:03:39.406Z,99494.53
2022-12-19T21:06:08.075Z,99489.22
2022-12-19T21:08:37.109Z,99485.75
2022-12-19T21:11:06.006Z,99488.38
2022-12-19T21:13:35.659Z,99487.56
2022-12-19T21:16:07.164Z,99489.41
2022-12-19T21:18:37.089Z,99488.72
2022-12-19T21:21:06.042Z,99479.59
2022-12-19T21:23:34.372Z,99471.78
2022-12-19T21:26:04.550Z,99474.44
2022-12-19T21:28:32.709Z,99477.97
2022-12-19T21:31:06.518Z,99469.00
2022-12-19T21:33:34.215Z,99481.25
2022-12-19T21:36:12.811Z,99471.50
2022-12-19T21:38:40.451Z,99465.31
2022-12-19T21:41:08.682Z,99462.53
2022-12-19T21:43:38.108Z,99451.09
2022-12-19T21:46:12.311Z,99453.06
2022-12-19T21:48:42.281Z,99457.22
2022-12-19T21:51:11.294Z,99456.38
2022-12-19T21:53:39.493Z,99450.06
2022-12-19T21:56:24.052Z,99447.44
2022-12-19T21:59:02.881Z,99447.13
2022-12-19T22:01:31.452Z,99445.16
2022-12-19T22:04:06.324Z,99442.50
2022-12-19T22:06:35.550Z,99460.06
2022-12-19T22:09:04.976Z,99464.41
2022-12-19T22:11:32.525Z,99455.44
2022-12-19T22:14:01.158Z,99441.34
2022-12-19T22:16:29.072Z,99458.75
2022-12-19T22:18:57.157Z,99458.75
2022-12-19T22:21:25.546Z,99455.13
2022-12-19T22:23:57.009Z,99448.81
2022-12-19T22:26:25.781Z,99443.84
2022-12-19T22:28:55.028Z,99428.88
2022-12-19T22:31:33.059Z,99434.19
2022-12-19T22:34:04.777Z,99433.22
2022-12-19T22:36:33.803Z,99432.22
2022-12-19T22:39:04.490Z,99432.22
2022-12-19T22:41:33.739Z,99426.91
2022-12-19T22:44:02.138Z,99419.94
2022-12-19T22:46:35.077Z,99422.59
2022-12-19T22:49:05.922Z,99427.22
2022-12-19T22:51:35.175Z,99424.59
2022-12-19T22:54:03.829Z,99417.78
2022-12-19T22:56:32.779Z,99407.97
2022-12-19T22:59:03.733Z,99406.31
2022-12-19T23:01:34.030Z,99413.09
2022-12-19T23:04:03.155Z,99406.63
2022-12-19T23:06:33.568Z,99413.59
2022-12-19T23:09:01.577Z,99414.75
2022-12-19T23:11:32.635Z,99398.81
2022-12-19T23:14:01.779Z,99401.31
2022-12-19T23:16:29.490Z,99402.97
2022-12-19T23:18:57.487Z,99398.81
2022-12-19T23:21:25.622Z,99394.34
2022-12-19T23:23:54.899Z,99404.13
2022-12-19T23:26:25.389Z,99396.31
2022-12-19T23:29:06.663Z,99391.69
2022-12-19T23:31:34.156Z,99384.72
2022-12-19T23:34:01.880Z,99377.75
2022-12-19T23:39:16.977Z,99381.41
2022-12-19T23:41:44.297Z,99378.75
2022-12-19T23:44:12.758Z,99386.03
2022-12-19T23:46:40.205Z,99385.22
2022-12-19T23:49:07.922Z,99387.03
2022-12-19T23:51:35.187Z,99395.84
2022-12-19T23:54:02.778Z,99396.81
2022-12-19T23:56:31.739Z,99396.66
2022-12-19T23:58:59.415Z,99403.94
